createdAt,value
2023-03-03T00:00:17.648Z,3.33
2023-03-03T00:02:44.975Z,2.80
2023-03-03T00:05:15.550Z,2.93
2023-03-03T00:07:46.631Z,2.67
2023-03-03T00:10:14.539Z,2.70
2023-03-03T00:12:47.692Z,2.77
2023-03-03T00:15:22.767Z,2.90
2023-03-03T00:17:50.199Z,3.00
2023-03-03T00:20:27.892Z,2.37
2023-03-03T00:22:55.707Z,3.00
2023-03-03T00:25:34.387Z,2.83
2023-03-03T00:28:25.524Z,2.77
2023-03-03T00:30:54.025Z,2.77
2023-03-03T00:33:21.373Z,2.57
2023-03-03T00:35:51.019Z,2.53
2023-03-03T00:38:19.051Z,3.33
2023-03-03T00:40:47.620Z,2.87
2023-03-03T00:43:25.485Z,2.67
2023-03-03T00:45:53.769Z,3.03
2023-03-03T00:48:31.818Z,2.20
2023-03-03T00:51:00.836Z,2.50
2023-03-03T00:53:29.642Z,2.80
2023-03-03T00:55:57.825Z,2.40
2023-03-03T00:58:25.932Z,2.70
2023-03-03T01:00:54.327Z,2.70
2023-03-03T01:03:26.712Z,3.20
2023-03-03T01:05:54.721Z,2.70
2023-03-03T01:08:22.768Z,2.60
2023-03-03T01:10:51.532Z,2.70
2023-03-03T01:13:20.532Z,2.87
2023-03-03T01:15:48.139Z,2.00
2023-03-03T01:18:15.759Z,3.07
2023-03-03T01:20:43.116Z,2.03
2023-03-03T01:23:10.652Z,2.43
2023-03-03T01:25:38.110Z,2.67
2023-03-03T01:28:06.223Z,2.10
2023-03-03T01:30:33.803Z,2.60
2023-03-03T01:33:01.417Z,2.07
2023-03-03T01:35:30.027Z,2.87
2023-03-03T01:37:57.450Z,2.37
2023-03-03T01:40:26.949Z,2.83
2023-03-03T01:42:55.038Z,2.27
2023-03-03T01:45:27.337Z,2.30
2023-03-03T01:47:57.982Z,2.30
2023-03-03T01:50:31.471Z,2.30
2023-03-03T01:53:00.665Z,2.70
2023-03-03T01:55:31.683Z,2.77
2023-03-03T01:58:02.448Z,2.37
2023-03-03T02:00:33.483Z,2.10
2023-03-03T02:03:01.037Z,2.43
2023-03-03T02:05:29.104Z,2.73
2023-03-03T02:07:56.691Z,1.77
2023-03-03T02:10:24.317Z,2.20
2023-03-03T02:12:59.235Z,2.40
2023-03-03T02:15:35.937Z,1.90
2023-03-03T02:18:22.233Z,2.00
2023-03-03T02:20:51.062Z,2.50
2023-03-03T02:23:35.685Z,2.13
2023-03-03T02:26:07.510Z,1.90
2023-03-03T02:28:36.027Z,1.70
2023-03-03T02:31:08.340Z,1.90
2023-03-03T02:33:35.953Z,1.97
2023-03-03T02:36:03.601Z,1.57
2023-03-03T02:38:50.285Z,1.90
2023-03-03T02:41:36.751Z,1.60
2023-03-03T02:44:08.576Z,1.60
2023-03-03T02:46:39.214Z,1.60
2023-03-03T02:49:07.362Z,2.30
2023-03-03T02:51:35.249Z,1.70
2023-03-03T02:54:02.889Z,1.77
2023-03-03T02:56:32.699Z,1.47
2023-03-03T02:59:00.290Z,1.83
2023-03-03T03:01:31.758Z,1.80
2023-03-03T03:03:59.720Z,1.57
2023-03-03T03:06:27.460Z,1.70
2023-03-03T03:08:55.551Z,1.43
2023-03-03T03:11:23.013Z,1.40
2023-03-03T03:13:50.622Z,1.80
2023-03-03T03:16:18.231Z,1.57
2023-03-03T03:18:45.712Z,1.47
2023-03-03T03:21:13.871Z,2.00
2023-03-03T03:23:43.076Z,1.60
2023-03-03T03:26:13.531Z,1.37
2023-03-03T03:28:41.476Z,1.77
2023-03-03T03:31:09.715Z,1.27
2023-03-03T03:33:37.397Z,1.60
2023-03-03T03:36:06.351Z,1.50
2023-03-03T03:38:39.693Z,1.80
2023-03-03T03:41:08.517Z,1.27
2023-03-03T03:43:36.404Z,1.80
2023-03-03T03:46:04.304Z,1.37
2023-03-03T03:48:31.967Z,1.13
2023-03-03T03:51:00.324Z,1.50
2023-03-03T03:53:28.753Z,1.40
2023-03-03T03:55:58.950Z,1.50
2023-03-03T03:58:26.623Z,1.40
2023-03-03T04:01:06.177Z,1.70
2023-03-03T04:03:36.715Z,1.57
2023-03-03T04:06:07.672Z,1.30
2023-03-03T04:08:35.479Z,1.57
2023-03-03T04:11:03.630Z,1.30
2023-03-03T04:13:32.187Z,1.30
2023-03-03T04:16:01.119Z,1.50
2023-03-03T04:18:28.873Z,1.60
2023-03-03T04:20:56.810Z,1.63
2023-03-03T04:23:25.316Z,1.63
2023-03-03T04:25:53.063Z,1.30
2023-03-03T04:28:21.926Z,1.20
2023-03-03T04:30:50.931Z,1.37
2023-03-03T04:33:20.041Z,1.20
2023-03-03T04:35:47.616Z,1.50
2023-03-03T04:38:15.321Z,1.30
2023-03-03T04:40:43.833Z,1.50
2023-03-03T04:43:13.211Z,1.30
2023-03-03T04:45:40.649Z,1.90
2023-03-03T04:48:11.167Z,1.67
2023-03-03T04:50:38.849Z,1.73
2023-03-03T04:53:06.392Z,1.70
2023-03-03T04:55:34.888Z,1.60
2023-03-03T04:58:02.676Z,1.70
2023-03-03T05:00:30.692Z,1.50
2023-03-03T05:02:58.299Z,1.60
2023-03-03T05:05:25.801Z,2.33
2023-03-03T05:07:53.149Z,2.77
2023-03-03T05:10:20.894Z,1.70
2023-03-03T05:12:48.384Z,1.83
2023-03-03T05:15:15.766Z,1.90
2023-03-03T05:17:43.292Z,1.80
2023-03-03T05:20:11.268Z,1.90
2023-03-03T05:22:38.923Z,1.77
2023-03-03T05:25:06.686Z,2.17
2023-03-03T05:27:34.496Z,2.03
2023-03-03T05:30:01.910Z,2.53
2023-03-03T05:32:29.504Z,2.10
2023-03-03T05:34:56.990Z,1.57
2023-03-03T05:37:24.582Z,1.60
2023-03-03T05:39:51.947Z,2.20
2023-03-03T05:42:19.391Z,2.20
2023-03-03T05:44:46.800Z,2.30
2023-03-03T05:47:14.375Z,2.43
2023-03-03T05:49:42.043Z,1.70
2023-03-03T05:52:09.580Z,1.90
2023-03-03T05:54:37.092Z,1.87
2023-03-03T05:57:04.628Z,2.60
2023-03-03T05:59:32.073Z,2.53
2023-03-03T06:01:59.606Z,2.60
2023-03-03T06:04:27.369Z,2.33
2023-03-03T06:06:54.858Z,2.60
2023-03-03T06:09:22.521Z,2.27
2023-03-03T06:11:50.288Z,2.40
2023-03-03T06:14:17.709Z,2.60
2023-03-03T06:16:45.305Z,2.70
2023-03-03T06:19:12.730Z,2.03
2023-03-03T06:21:40.251Z,2.33
2023-03-03T06:24:08.625Z,2.57
2023-03-03T06:26:38.457Z,2.50
2023-03-03T06:29:05.991Z,2.33
2023-03-03T06:31:33.763Z,2.40
2023-03-03T06:34:01.265Z,2.50
2023-03-03T06:36:28.820Z,2.40
2023-03-03T06:38:59.241Z,2.50
2023-03-03T06:41:26.796Z,3.20
2023-03-03T06:43:56.673Z,3.10
2023-03-03T06:46:24.245Z,2.37
2023-03-03T06:48:51.740Z,2.10
2023-03-03T06:51:33.745Z,2.10
2023-03-03T06:54:03.447Z,2.20
2023-03-03T06:56:33.660Z,2.23
2023-03-03T06:59:03.040Z,2.60
2023-03-03T07:01:34.537Z,2.27
2023-03-03T07:04:02.149Z,2.13
2023-03-03T07:06:30.468Z,2.57
2023-03-03T07:08:58.232Z,2.43
2023-03-03T07:11:25.859Z,2.60
2023-03-03T07:13:56.633Z,2.77
2023-03-03T07:16:28.973Z,2.87
2023-03-03T07:18:58.208Z,2.97
2023-03-03T07:21:32.960Z,2.63
2023-03-03T07:24:02.897Z,2.37
2023-03-03T07:26:33.142Z,2.53
2023-03-03T07:29:01.921Z,2.67
2023-03-03T07:31:36.959Z,3.10
2023-03-03T07:34:13.848Z,3.00
2023-03-03T07:36:41.889Z,2.53
2023-03-03T07:39:21.118Z,2.40
2023-03-03T07:41:48.721Z,2.33
2023-03-03T07:44:16.064Z,2.33
2023-03-03T07:46:45.130Z,2.90
2023-03-03T07:49:21.828Z,2.23
2023-03-03T07:51:53.328Z,2.43
2023-03-03T07:54:31.444Z,2.70
2023-03-03T07:57:19.296Z,2.73
2023-03-03T07:59:48.817Z,2.17
2023-03-03T08:02:34.714Z,2.23
2023-03-03T08:05:05.011Z,2.27
2023-03-03T08:07:33.299Z,2.40
2023-03-03T08:10:01.805Z,2.90
2023-03-03T08:12:40.172Z,2.30
2023-03-03T08:15:20.075Z,2.47
2023-03-03T08:17:48.555Z,2.23
2023-03-03T08:20:34.759Z,2.90
2023-03-03T08:23:02.163Z,2.10
2023-03-03T08:25:30.060Z,2.70
2023-03-03T08:27:57.481Z,3.20
2023-03-03T08:30:24.958Z,2.13
2023-03-03T08:32:52.505Z,1.90
2023-03-03T08:35:24.845Z,2.23
2023-03-03T08:37:52.449Z,2.53
2023-03-03T08:40:20.112Z,2.20
2023-03-03T08:42:47.552Z,2.30
2023-03-03T08:45:15.242Z,2.00
2023-03-03T08:47:43.345Z,2.10
2023-03-03T08:50:30.251Z,2.03
2023-03-03T08:52:58.244Z,2.03
2023-03-03T08:55:25.927Z,1.80
2023-03-03T08:57:53.411Z,2.30
2023-03-03T09:00:21.309Z,2.13
2023-03-03T09:02:49.353Z,1.80
2023-03-03T09:05:17.542Z,2.13
2023-03-03T09:07:47.859Z,2.00
2023-03-03T09:10:17.738Z,1.73
2023-03-03T09:12:49.135Z,2.50
2023-03-03T09:15:25.152Z,2.50
2023-03-03T09:17:53.021Z,1.97
2023-03-03T09:20:26.680Z,1.70
2023-03-03T09:22:54.512Z,2.37
2023-03-03T09:25:32.918Z,1.57
2023-03-03T09:28:00.886Z,2.23
2023-03-03T09:30:34.813Z,1.70
2023-03-03T09:33:03.096Z,1.87
2023-03-03T09:35:36.202Z,1.80
2023-03-03T09:38:25.767Z,2.17
2023-03-03T09:41:02.637Z,2.37
2023-03-03T09:43:42.516Z,2.20
2023-03-03T09:46:29.121Z,2.00
2023-03-03T09:49:03.902Z,1.90
2023-03-03T09:51:45.765Z,1.80
2023-03-03T09:54:32.158Z,2.30
2023-03-03T09:57:10.260Z,1.93
2023-03-03T09:59:37.943Z,1.63
2023-03-03T10:02:17.741Z,1.97
2023-03-03T10:04:56.287Z,2.20
2023-03-03T10:07:25.497Z,1.53
2023-03-03T10:10:11.889Z,1.70
2023-03-03T10:12:51.561Z,1.30
2023-03-03T10:15:31.923Z,2.37
2023-03-03T10:18:11.843Z,1.70
2023-03-03T10:20:51.904Z,1.80
2023-03-03T10:23:39.908Z,1.57
2023-03-03T10:26:43.964Z,1.73
2023-03-03T10:29:23.284Z,1.50
2023-03-03T10:31:58.313Z,1.40
2023-03-03T10:34:34.886Z,1.40
2023-03-03T10:37:05.358Z,1.50
2023-03-03T10:39:59.107Z,1.20
2023-03-03T10:42:29.570Z,1.40
2023-03-03T10:45:15.884Z,1.33
2023-03-03T10:47:53.886Z,1.63
2023-03-03T10:50:21.406Z,1.50
2023-03-03T10:53:15.374Z,1.10
2023-03-03T10:55:53.237Z,1.20
2023-03-03T10:58:32.313Z,1.33
2023-03-03T11:01:03.080Z,1.60
2023-03-03T11:03:33.872Z,1.73
2023-03-03T11:06:07.573Z,1.40
2023-03-03T11:08:38.561Z,1.70
2023-03-03T11:11:18.772Z,1.40
2023-03-03T11:13:48.164Z,1.37
2023-03-03T11:16:24.571Z,1.30
2023-03-03T11:18:53.632Z,1.33
2023-03-03T11:21:30.442Z,1.23
2023-03-03T11:24:16.037Z,1.40
2023-03-03T11:26:49.797Z,1.30
2023-03-03T11:29:23.459Z,1.47
2023-03-03T11:31:58.717Z,1.40
2023-03-03T11:34:46.409Z,1.30
2023-03-03T11:37:16.952Z,1.10
2023-03-03T11:39:46.470Z,1.50
2023-03-03T11:42:25.707Z,1.10
2023-03-03T11:45:00.585Z,1.40
2023-03-03T11:47:46.728Z,1.33
2023-03-03T11:50:22.210Z,1.30
2023-03-03T11:52:55.843Z,1.40
2023-03-03T11:55:27.675Z,1.30
2023-03-03T11:58:05.317Z,1.20
2023-03-03T12:00:44.657Z,1.20
2023-03-03T12:03:17.508Z,1.30
2023-03-03T12:05:56.581Z,1.30
2023-03-03T12:08:42.784Z,1.30
2023-03-03T12:11:26.160Z,1.40
2023-03-03T12:14:13.873Z,1.40
2023-03-03T12:16:56.895Z,1.50
2023-03-03T12:19:30.604Z,1.30
2023-03-03T12:22:06.831Z,1.53
2023-03-03T12:24:34.355Z,1.83
2023-03-03T12:27:08.227Z,1.50
2023-03-03T12:29:54.521Z,1.43
2023-03-03T12:32:40.869Z,1.40
2023-03-03T12:35:17.758Z,1.40
2023-03-03T12:38:04.102Z,1.57
2023-03-03T12:40:34.354Z,1.30
2023-03-03T12:43:07.948Z,1.47
2023-03-03T12:45:38.563Z,1.47
2023-03-03T12:48:10.400Z,1.20
2023-03-03T12:50:48.829Z,1.30
2023-03-03T12:53:24.408Z,1.30
2023-03-03T12:55:54.902Z,1.20
2023-03-03T12:58:36.215Z,1.33
2023-03-03T13:01:03.705Z,1.40
2023-03-03T13:03:35.729Z,1.37
2023-03-03T13:06:18.391Z,1.40
2023-03-03T13:08:51.591Z,1.33
2023-03-03T13:11:28.526Z,1.40
2023-03-03T13:13:56.066Z,1.47
2023-03-03T13:16:40.626Z,1.30
2023-03-03T13:19:13.012Z,1.20
2023-03-03T13:21:55.384Z,1.27
2023-03-03T13:24:26.493Z,1.60
2023-03-03T13:27:29.430Z,1.37
2023-03-03T13:30:00.172Z,1.50
2023-03-03T13:32:37.517Z,1.40
2023-03-03T13:35:10.088Z,1.10
2023-03-03T13:37:41.101Z,1.40
2023-03-03T13:40:11.854Z,1.37
2023-03-03T13:42:51.448Z,1.10
2023-03-03T13:45:35.480Z,1.57
2023-03-03T13:48:12.468Z,1.27
2023-03-03T13:50:42.943Z,1.50
2023-03-03T13:53:21.087Z,1.33
2023-03-03T13:55:59.368Z,1.50
2023-03-03T13:58:36.919Z,1.47
2023-03-03T14:01:14.938Z,1.57
2023-03-03T14:04:06.818Z,1.93
2023-03-03T14:06:34.304Z,1.30
2023-03-03T14:09:22.069Z,1.30
2023-03-03T14:11:56.428Z,1.20
2023-03-03T14:14:27.719Z,1.40
2023-03-03T14:17:02.105Z,1.40
2023-03-03T14:19:33.546Z,1.40
2023-03-03T14:22:07.025Z,1.30
2023-03-03T14:24:54.537Z,1.60
2023-03-03T14:27:29.596Z,1.20
2023-03-03T14:29:56.995Z,1.37
2023-03-03T14:32:39.453Z,1.30
2023-03-03T14:35:19.073Z,1.10
2023-03-03T14:37:47.301Z,1.23
2023-03-03T14:40:32.492Z,1.67
2023-03-03T14:43:01.119Z,1.50
2023-03-03T14:45:34.281Z,1.50
2023-03-03T14:48:06.940Z,1.57
2023-03-03T14:50:36.366Z,1.53
2023-03-03T14:53:10.017Z,1.30
2023-03-03T14:55:39.333Z,1.30
2023-03-03T14:58:25.295Z,1.20
2023-03-03T15:01:07.378Z,1.43
2023-03-03T15:03:38.080Z,1.20
2023-03-03T15:06:11.889Z,1.40
2023-03-03T15:08:40.859Z,1.40
2023-03-03T15:11:14.528Z,1.20
2023-03-03T15:13:42.190Z,1.20
2023-03-03T15:16:12.802Z,1.50
2023-03-03T15:19:01.618Z,1.50
2023-03-03T15:21:32.274Z,1.47
2023-03-03T15:24:19.711Z,1.17
2023-03-03T15:27:02.704Z,1.47
2023-03-03T15:29:49.268Z,1.30
2023-03-03T15:32:30.731Z,1.73
2023-03-03T15:35:14.892Z,1.60
2023-03-03T15:37:53.269Z,1.30
2023-03-03T15:40:28.592Z,1.70
2023-03-03T15:42:58.726Z,1.47
2023-03-03T15:45:29.975Z,1.30
2023-03-03T15:47:57.261Z,1.53
2023-03-03T15:50:40.040Z,1.83
2023-03-03T15:53:19.646Z,1.40
2023-03-03T15:55:57.232Z,1.20
2023-03-03T15:58:31.031Z,1.57
2023-03-03T16:01:01.547Z,1.33
2023-03-03T16:03:32.598Z,1.50
2023-03-03T16:06:06.419Z,1.20
2023-03-03T16:08:47.996Z,1.30
2023-03-03T16:11:18.874Z,1.30
2023-03-03T16:13:46.397Z,1.30
2023-03-03T16:16:19.653Z,1.47
2023-03-03T16:18:58.744Z,1.30
2023-03-03T16:21:29.406Z,1.50
2023-03-03T16:24:11.409Z,1.50
2023-03-03T16:26:48.416Z,1.53
2023-03-03T16:29:15.808Z,1.73
2023-03-03T16:31:47.370Z,1.80
2023-03-03T16:34:20.828Z,1.30
2023-03-03T16:36:51.363Z,1.70
2023-03-03T16:39:18.684Z,1.93
2023-03-03T16:41:46.173Z,1.70
2023-03-03T16:44:21.496Z,1.37
2023-03-03T16:46:50.504Z,1.63
2023-03-03T16:49:27.953Z,1.50
2023-03-03T16:52:15.149Z,1.30
2023-03-03T16:54:46.114Z,1.90
2023-03-03T16:57:13.820Z,1.60
2023-03-03T17:00:11.313Z,1.50
2023-03-03T17:02:38.804Z,1.43
2023-03-03T17:05:06.246Z,1.47
2023-03-03T17:07:36.589Z,1.77
2023-03-03T17:10:17.660Z,1.37
2023-03-03T17:12:48.386Z,1.50
2023-03-03T17:15:20.048Z,1.60
2023-03-03T17:17:51.519Z,1.70
2023-03-03T17:20:22.326Z,1.50
2023-03-03T17:23:09.723Z,2.27
2023-03-03T17:25:37.362Z,1.70
2023-03-03T17:28:34.210Z,1.87
2023-03-03T17:31:17.306Z,1.73
2023-03-03T17:34:07.448Z,2.37
2023-03-03T17:36:48.857Z,1.40
2023-03-03T17:39:35.349Z,1.40
2023-03-03T17:42:13.876Z,1.93
2023-03-03T17:44:50.699Z,1.60
2023-03-03T17:50:31.181Z,2.53
2023-03-03T17:53:17.488Z,1.40
2023-03-03T17:55:50.348Z,1.40
2023-03-03T17:58:36.998Z,1.90
2023-03-03T18:01:22.934Z,1.97
2023-03-03T18:04:09.277Z,1.73
2023-03-03T18:06:50.357Z,1.63
2023-03-03T18:09:21.936Z,1.40
2023-03-03T18:11:55.479Z,2.33
2023-03-03T18:14:29.717Z,1.60
2023-03-03T18:17:03.354Z,1.40
2023-03-03T18:19:49.278Z,1.73
2023-03-03T18:22:22.858Z,1.83
2023-03-03T18:24:50.153Z,1.83
2023-03-03T18:27:36.573Z,1.30
2023-03-03T18:30:25.033Z,1.67
2023-03-03T18:33:00.971Z,1.93
2023-03-03T18:35:34.859Z,1.70
2023-03-03T18:38:17.679Z,2.00
2023-03-03T18:40:57.370Z,1.90
2023-03-03T18:43:43.183Z,1.80
2023-03-03T18:46:23.010Z,2.20
2023-03-03T18:48:56.437Z,2.10
2023-03-03T18:51:53.398Z,2.07
2023-03-03T18:54:30.902Z,1.90
2023-03-03T18:56:59.984Z,1.63
2023-03-03T18:59:36.556Z,1.63
2023-03-03T19:02:13.201Z,1.83
2023-03-03T19:05:04.001Z,1.53
2023-03-03T19:07:46.760Z,1.83
2023-03-03T19:10:15.062Z,2.00
2023-03-03T19:12:42.568Z,1.67
2023-03-03T19:15:28.909Z,1.73
2023-03-03T19:18:15.290Z,2.67
2023-03-03T19:21:03.793Z,2.00
2023-03-03T19:23:51.281Z,2.40
2023-03-03T19:26:21.702Z,1.73
2023-03-03T19:28:56.738Z,1.73
2023-03-03T19:31:30.047Z,1.77
2023-03-03T19:34:11.112Z,1.90
2023-03-03T19:36:53.748Z,1.70
2023-03-03T19:39:31.977Z,1.70
2023-03-03T19:42:05.663Z,1.60
2023-03-03T19:44:49.950Z,1.93
2023-03-03T19:47:29.398Z,1.60
2023-03-03T19:50:16.788Z,1.50
2023-03-03T19:52:44.100Z,2.20
2023-03-03T19:55:14.480Z,1.63
2023-03-03T19:57:45.977Z,1.63
2023-03-03T20:00:32.210Z,2.00
2023-03-03T20:03:25.541Z,1.30
2023-03-03T20:05:57.569Z,1.67
2023-03-03T20:08:44.078Z,1.40
2023-03-03T20:11:17.807Z,1.10
2023-03-03T20:13:55.898Z,1.63
2023-03-03T20:16:23.563Z,1.40
2023-03-03T20:18:54.189Z,2.00
2023-03-03T20:21:24.659Z,2.00
2023-03-03T20:23:55.368Z,1.50
2023-03-03T20:26:27.260Z,1.57
2023-03-03T20:28:57.826Z,1.87
2023-03-03T20:31:44.317Z,1.80
2023-03-03T20:34:16.867Z,1.50
2023-03-03T20:36:56.071Z,1.63
2023-03-03T20:39:41.896Z,1.30
2023-03-03T20:42:14.230Z,1.20
2023-03-03T20:45:03.296Z,2.00
2023-03-03T20:47:49.580Z,1.67
2023-03-03T20:50:22.491Z,1.63
2023-03-03T20:52:56.861Z,1.50
2023-03-03T20:55:44.727Z,1.50
2023-03-03T20:58:21.199Z,1.53
2023-03-03T21:00:53.408Z,1.40
2023-03-03T21:03:34.973Z,1.87
2023-03-03T21:06:03.942Z,1.40
2023-03-03T21:08:46.920Z,1.13
2023-03-03T21:11:15.618Z,1.47
2023-03-03T21:13:47.986Z,2.27
2023-03-03T21:16:21.496Z,1.17
2023-03-03T21:19:10.007Z,1.20
2023-03-03T21:21:41.841Z,1.67
2023-03-03T21:24:15.318Z,1.77
2023-03-03T21:26:50.408Z,1.60
2023-03-03T21:29:25.144Z,1.40
2023-03-03T21:31:54.060Z,1.30
2023-03-03T21:34:26.390Z,2.37
2023-03-03T21:36:54.334Z,1.30
2023-03-03T21:39:23.177Z,1.40
2023-03-03T21:41:51.959Z,1.40
2023-03-03T21:44:33.302Z,1.50
2023-03-03T21:47:00.896Z,1.20
2023-03-03T21:49:28.544Z,1.50
2023-03-03T21:51:56.944Z,1.30
2023-03-03T21:54:25.847Z,1.37
2023-03-03T21:56:53.288Z,1.80
2023-03-03T21:59:21.167Z,1.30
2023-03-03T22:01:48.724Z,1.33
2023-03-03T22:04:16.439Z,1.83
2023-03-03T22:06:43.935Z,1.20
2023-03-03T22:09:11.280Z,1.23
2023-03-03T22:11:39.683Z,1.73
2023-03-03T22:14:07.777Z,1.40
2023-03-03T22:16:35.427Z,1.43
2023-03-03T22:19:03.295Z,1.43
2023-03-03T22:21:31.271Z,1.40
2023-03-03T22:23:58.947Z,1.37
2023-03-03T22:26:26.448Z,1.23
2023-03-03T22:28:53.865Z,1.43
2023-03-03T22:31:21.515Z,1.43
2023-03-03T22:33:49.120Z,1.30
2023-03-03T22:36:16.884Z,1.50
2023-03-03T22:38:44.251Z,1.60
2023-03-03T22:41:11.684Z,1.50
2023-03-03T22:43:39.163Z,1.27
2023-03-03T22:46:06.544Z,1.40
2023-03-03T22:48:34.120Z,2.00
2023-03-03T22:51:01.485Z,1.37
2023-03-03T22:53:28.904Z,1.67
2023-03-03T22:55:56.265Z,1.53
2023-03-03T22:58:26.524Z,1.20
2023-03-03T23:00:54.662Z,1.60
2023-03-03T23:03:22.548Z,1.40
2023-03-03T23:05:51.751Z,1.37
2023-03-03T23:08:20.573Z,1.43
2023-03-03T23:10:48.529Z,1.53
2023-03-03T23:13:16.426Z,1.20
2023-03-03T23:15:44.068Z,1.40
2023-03-03T23:18:11.419Z,1.73
2023-03-03T23:20:38.908Z,1.33
2023-03-03T23:23:06.257Z,1.10
2023-03-03T23:25:34.373Z,1.23
2023-03-03T23:28:01.712Z,1.20
2023-03-03T23:30:29.020Z,1.30
2023-03-03T23:32:56.272Z,1.47
2023-03-03T23:35:23.836Z,1.47
2023-03-03T23:37:51.341Z,1.40
2023-03-03T23:40:18.822Z,1.60
2023-03-03T23:42:46.205Z,1.60
2023-03-03T23:45:14.163Z,1.40
2023-03-03T23:47:41.721Z,1.20
2023-03-03T23:50:10.339Z,1.20
2023-03-03T23:52:37.687Z,1.57
2023-03-03T23:55:05.723Z,1.40
2023-03-03T23:57:33.154Z,1.10
